Aviation Digital Data Service (ADDS)

Output produced by METARs form (0539 UTC 16 February 2019)
found at http://www.aviationweather.gov/metar/data/
 
METAR text: WBGS 160500Z VRB01KT 9999 SCT016 BKN150 26/24 Q1013
Conditions at: WBGS (SIBU , MY) observed 0500 UTC 16 February 2019
Temperature: 26.0°C (79°F)
Dewpoint: 24.0°C (75°F) [RH = 89%]
Pressure (altimeter): 29.91 inches Hg (1013.0 mb)
Winds: variable direction winds at 1 MPH (1 knots; 0.5 m/s)
Visibility: 6 or more miles (10+ km)
Ceiling: 15000 feet AGL
Clouds: scattered clouds at 1600 feet AGL
broken clouds at 15000 feet AGL
Weather: no significant weather observed at this time

METAR text: WBGS 160400Z VRB02KT 9999 -RA FEW008 SCT016 BKN150 24/23 Q1014
Conditions at: WBGS (SIBU , MY) observed 0400 UTC 16 February 2019
Temperature: 24.0°C (75°F)
Dewpoint: 23.0°C (73°F) [RH = 94%]
Pressure (altimeter): 29.94 inches Hg (1014.0 mb)
Winds: variable direction winds at 2 MPH (2 knots; 1.0 m/s)
Visibility: 6 or more miles (10+ km)
Ceiling: 15000 feet AGL
Clouds: few clouds at 800 feet AGL
scattered clouds at 1600 feet AGL
broken clouds at 15000 feet AGL
Weather: -RA  (light rain)

METAR text: WBGS 160300Z 12003KT 050V160 9999 -RA FEW008 SCT016 BKN150 23/23 Q1016
Conditions at: WBGS (SIBU , MY) observed 0300 UTC 16 February 2019
Temperature: 23.0°C (73°F)
Dewpoint: 23.0°C (73°F) [RH = 100%]
Pressure (altimeter): 30.00 inches Hg (1016.0 mb)
Winds: from the ESE (120 degrees) at 3 MPH (3 knots; 1.5 m/s)
Visibility: 6 or more miles (10+ km)
Ceiling: 15000 feet AGL
Clouds: few clouds at 800 feet AGL
scattered clouds at 1600 feet AGL
broken clouds at 15000 feet AGL
Weather: -RA  (light rain)

METAR text: WBGS 160200Z 17003KT 110V240 9999 -RA SCT005 SCT016 BKN150 24/23 Q1015
Conditions at: WBGS (SIBU , MY) observed 0200 UTC 16 February 2019
Temperature: 24.0°C (75°F)
Dewpoint: 23.0°C (73°F) [RH = 94%]
Pressure (altimeter): 29.97 inches Hg (1015.0 mb)
Winds: from the S (170 degrees) at 3 MPH (3 knots; 1.5 m/s)
Visibility: 6 or more miles (10+ km)
Ceiling: 15000 feet AGL
Clouds: scattered clouds at 500 feet AGL
scattered clouds at 1600 feet AGL
broken clouds at 15000 feet AGL
Weather: -RA  (light rain)

METAR text: WBGS 160100Z VRB02KT 9999 -RA SCT005 SCT014 BKN150 26/24 Q1015
Conditions at: WBGS (SIBU , MY) observed 0100 UTC 16 February 2019
Temperature: 26.0°C (79°F)
Dewpoint: 24.0°C (75°F) [RH = 89%]
Pressure (altimeter): 29.97 inches Hg (1015.0 mb)
Winds: variable direction winds at 2 MPH (2 knots; 1.0 m/s)
Visibility: 6 or more miles (10+ km)
Ceiling: 15000 feet AGL
Clouds: scattered clouds at 500 feet AGL
scattered clouds at 1400 feet AGL
broken clouds at 15000 feet AGL
Weather: -RA  (light rain)

METAR text: WBGS 160000Z 13003KT 080V160 9999 FEW004 SCT018 BKN150 25/24 Q1014
Conditions at: WBGS (SIBU , MY) observed 0000 UTC 16 February 2019
Temperature: 25.0°C (77°F)
Dewpoint: 24.0°C (75°F) [RH = 94%]
Pressure (altimeter): 29.94 inches Hg (1014.0 mb)
Winds: from the SE (130 degrees) at 3 MPH (3 knots; 1.5 m/s)
Visibility: 6 or more miles (10+ km)
Ceiling: 15000 feet AGL
Clouds: few clouds at 400 feet AGL
scattered clouds at 1800 feet AGL
broken clouds at 15000 feet AGL
Weather: no significant weather observed at this time

METAR text: WBGS 152300Z VRB02KT 8000 SCT002 SCT018 BKN150 24/24 Q1013
Conditions at: WBGS (SIBU , MY) observed 2300 UTC 15 February 2019
Temperature: 24.0°C (75°F)
Dewpoint: 24.0°C (75°F) [RH = 100%]
Pressure (altimeter): 29.91 inches Hg (1013.0 mb)
Winds: variable direction winds at 2 MPH (2 knots; 1.0 m/s)
Visibility: 5 miles ( 8 km)
Ceiling: 15000 feet AGL
Clouds: scattered clouds at 200 feet AGL
scattered clouds at 1800 feet AGL
broken clouds at 15000 feet AGL
Weather: no significant weather observed at this time

METAR text: WBGS 152200Z 00000KT 8000 SCT002 SCT018 BKN150 25/24 Q1013
Conditions at: WBGS (SIBU , MY) observed 2200 UTC 15 February 2019
Temperature: 25.0°C (77°F)
Dewpoint: 24.0°C (75°F) [RH = 94%]
Pressure (altimeter): 29.91 inches Hg (1013.0 mb)
Winds: calm
Visibility: 5 miles ( 8 km)
Ceiling: 15000 feet AGL
Clouds: scattered clouds at 200 feet AGL
scattered clouds at 1800 feet AGL
broken clouds at 15000 feet AGL
Weather: no significant weather observed at this time

METAR text: WBGS 152100Z 00000KT 9999 FEW007 SCT018 BKN150 24/24 Q1012
Conditions at: WBGS (SIBU , MY) observed 2100 UTC 15 February 2019
Temperature: 24.0°C (75°F)
Dewpoint: 24.0°C (75°F) [RH = 100%]
Pressure (altimeter): 29.88 inches Hg (1012.0 mb)
Winds: calm
Visibility: 6 or more miles (10+ km)
Ceiling: 15000 feet AGL
Clouds: few clouds at 700 feet AGL
scattered clouds at 1800 feet AGL
broken clouds at 15000 feet AGL
Weather: no significant weather observed at this time

METAR text: WBGS 152000Z 00000KT 9999 FEW007 SCT018 BKN150 24/24 Q1012
Conditions at: WBGS (SIBU , MY) observed 2000 UTC 15 February 2019
Temperature: 24.0°C (75°F)
Dewpoint: 24.0°C (75°F) [RH = 100%]
Pressure (altimeter): 29.88 inches Hg (1012.0 mb)
Winds: calm
Visibility: 6 or more miles (10+ km)
Ceiling: 15000 feet AGL
Clouds: few clouds at 700 feet AGL
scattered clouds at 1800 feet AGL
broken clouds at 15000 feet AGL
Weather: no significant weather observed at this time

METAR text: WBGS 151900Z VRB01KT 9999 SCT018 BKN150 24/24 Q1013
Conditions at: WBGS (SIBU , MY) observed 1900 UTC 15 February 2019
Temperature: 24.0°C (75°F)
Dewpoint: 24.0°C (75°F) [RH = 100%]
Pressure (altimeter): 29.91 inches Hg (1013.0 mb)
Winds: variable direction winds at 1 MPH (1 knots; 0.5 m/s)
Visibility: 6 or more miles (10+ km)
Ceiling: 15000 feet AGL
Clouds: scattered clouds at 1800 feet AGL
broken clouds at 15000 feet AGL
Weather: no significant weather observed at this time

METAR text: WBGS 151800Z VRB01KT 9999 SCT018 BKN150 24/24 Q1013
Conditions at: WBGS (SIBU , MY) observed 1800 UTC 15 February 2019
Temperature: 24.0°C (75°F)
Dewpoint: 24.0°C (75°F) [RH = 100%]
Pressure (altimeter): 29.91 inches Hg (1013.0 mb)
Winds: variable direction winds at 1 MPH (1 knots; 0.5 m/s)
Visibility: 6 or more miles (10+ km)
Ceiling: 15000 feet AGL
Clouds: scattered clouds at 1800 feet AGL
broken clouds at 15000 feet AGL
Weather: no significant weather observed at this time

METAR text: WBGS 151700Z 00000KT 9999 SCT018 BKN150 24/24 Q1013
Conditions at: WBGS (SIBU , MY) observed 1700 UTC 15 February 2019
Temperature: 24.0°C (75°F)
Dewpoint: 24.0°C (75°F) [RH = 100%]
Pressure (altimeter): 29.91 inches Hg (1013.0 mb)
Winds: calm
Visibility: 6 or more miles (10+ km)
Ceiling: 15000 feet AGL
Clouds: scattered clouds at 1800 feet AGL
broken clouds at 15000 feet AGL
Weather: no significant weather observed at this time

METAR text: WBGS 151600Z 00000KT 9999 SCT018 SCT150 BKN300 25/24 Q1014
Conditions at: WBGS (SIBU , MY) observed 1600 UTC 15 February 2019
Temperature: 25.0°C (77°F)
Dewpoint: 24.0°C (75°F) [RH = 94%]
Pressure (altimeter): 29.94 inches Hg (1014.0 mb)
Winds: calm
Visibility: 6 or more miles (10+ km)
Ceiling: 30000 feet AGL
Clouds: scattered clouds at 1800 feet AGL
scattered clouds at 15000 feet AGL
broken clouds at 30000 feet AGL
Weather: no significant weather observed at this time

METAR text: WBGS 151500Z 00000KT 9999 SCT018 SCT150 BKN300 25/24 Q1014
Conditions at: WBGS (SIBU , MY) observed 1500 UTC 15 February 2019
Temperature: 25.0°C (77°F)
Dewpoint: 24.0°C (75°F) [RH = 94%]
Pressure (altimeter): 29.94 inches Hg (1014.0 mb)
Winds: calm
Visibility: 6 or more miles (10+ km)
Ceiling: 30000 feet AGL
Clouds: scattered clouds at 1800 feet AGL
scattered clouds at 15000 feet AGL
broken clouds at 30000 feet AGL
Weather: no significant weather observed at this time

METAR text: WBGS 151400Z 23003KT 9999 SCT018 SCT150 BKN300 25/24 Q1014
Conditions at: WBGS (SIBU , MY) observed 1400 UTC 15 February 2019
Temperature: 25.0°C (77°F)
Dewpoint: 24.0°C (75°F) [RH = 94%]
Pressure (altimeter): 29.94 inches Hg (1014.0 mb)
Winds: from the SW (230 degrees) at 3 MPH (3 knots; 1.5 m/s)
Visibility: 6 or more miles (10+ km)
Ceiling: 30000 feet AGL
Clouds: scattered clouds at 1800 feet AGL
scattered clouds at 15000 feet AGL
broken clouds at 30000 feet AGL
Weather: no significant weather observed at this time

METAR text: WBGS 151300Z 00000KT 9999 FEW018 BKN300 25/24 Q1013
Conditions at: WBGS (SIBU , MY) observed 1300 UTC 15 February 2019
Temperature: 25.0°C (77°F)
Dewpoint: 24.0°C (75°F) [RH = 94%]
Pressure (altimeter): 29.91 inches Hg (1013.0 mb)
Winds: calm
Visibility: 6 or more miles (10+ km)
Ceiling: 30000 feet AGL
Clouds: few clouds at 1800 feet AGL
broken clouds at 30000 feet AGL
Weather: no significant weather observed at this time

METAR text: WBGS 151200Z VRB02KT 9999 FEW018 BKN300 26/24 Q1012
Conditions at: WBGS (SIBU , MY) observed 1200 UTC 15 February 2019
Temperature: 26.0°C (79°F)
Dewpoint: 24.0°C (75°F) [RH = 89%]
Pressure (altimeter): 29.88 inches Hg (1012.0 mb)
Winds: variable direction winds at 2 MPH (2 knots; 1.0 m/s)
Visibility: 6 or more miles (10+ km)
Ceiling: 30000 feet AGL
Clouds: few clouds at 1800 feet AGL
broken clouds at 30000 feet AGL
Weather: no significant weather observed at this time

METAR text: WBGS 151100Z VRB03KT 9999 FEW015CB BKN300 27/24 Q1011
Conditions at: WBGS (SIBU , MY) observed 1100 UTC 15 February 2019
Temperature: 27.0°C (81°F)
Dewpoint: 24.0°C (75°F) [RH = 84%]
Pressure (altimeter): 29.85 inches Hg (1011.0 mb)
Winds: variable direction winds at 3 MPH (3 knots; 1.5 m/s)
Visibility: 6 or more miles (10+ km)
Ceiling: 30000 feet AGL
Clouds: few clouds at 1500 feet AGL
broken clouds at 30000 feet AGL
Weather: no significant weather observed at this time

METAR text: WBGS 151000Z VRB02KT 9999 FEW015CB BKN150 29/24 Q1010
Conditions at: WBGS (SIBU , MY) observed 1000 UTC 15 February 2019
Temperature: 29.0°C (84°F)
Dewpoint: 24.0°C (75°F) [RH = 74%]
Pressure (altimeter): 29.82 inches Hg (1010.0 mb)
Winds: variable direction winds at 2 MPH (2 knots; 1.0 m/s)
Visibility: 6 or more miles (10+ km)
Ceiling: 15000 feet AGL
Clouds: few clouds at 1500 feet AGL
broken clouds at 15000 feet AGL
Weather: no significant weather observed at this time

METAR text: WBGS 150900Z 23004KT 190V260 9999 FEW015CB BKN150 29/24 Q1010
Conditions at: WBGS (SIBU , MY) observed 0900 UTC 15 February 2019
Temperature: 29.0°C (84°F)
Dewpoint: 24.0°C (75°F) [RH = 74%]
Pressure (altimeter): 29.82 inches Hg (1010.0 mb)
Winds: from the SW (230 degrees) at 5 MPH (4 knots; 2.1 m/s)
Visibility: 6 or more miles (10+ km)
Ceiling: 15000 feet AGL
Clouds: few clouds at 1500 feet AGL
broken clouds at 15000 feet AGL
Weather: no significant weather observed at this time

METAR text: WBGS 150800Z VRB04KT 9999 SCT018 BKN150 29/24 Q1010
Conditions at: WBGS (SIBU , MY) observed 0800 UTC 15 February 2019
Temperature: 29.0°C (84°F)
Dewpoint: 24.0°C (75°F) [RH = 74%]
Pressure (altimeter): 29.82 inches Hg (1010.0 mb)
Winds: variable direction winds at 5 MPH (4 knots; 2.1 m/s)
Visibility: 6 or more miles (10+ km)
Ceiling: 15000 feet AGL
Clouds: scattered clouds at 1800 feet AGL
broken clouds at 15000 feet AGL
Weather: no significant weather observed at this time

METAR text: WBGS 150700Z 24003KT 190V310 9999 SCT016 BKN150 29/25 Q1011
Conditions at: WBGS (SIBU , MY) observed 0700 UTC 15 February 2019
Temperature: 29.0°C (84°F)
Dewpoint: 25.0°C (77°F) [RH = 79%]
Pressure (altimeter): 29.85 inches Hg (1011.0 mb)
Winds: from the WSW (240 degrees) at 3 MPH (3 knots; 1.5 m/s)
Visibility: 6 or more miles (10+ km)
Ceiling: 15000 feet AGL
Clouds: scattered clouds at 1600 feet AGL
broken clouds at 15000 feet AGL
Weather: no significant weather observed at this time

METAR text: WBGS 150600Z VRB02KT 9999 SCT014 BKN150 28/24 Q1012
Conditions at: WBGS (SIBU , MY) observed 0600 UTC 15 February 2019
Temperature: 28.0°C (82°F)
Dewpoint: 24.0°C (75°F) [RH = 79%]
Pressure (altimeter): 29.88 inches Hg (1012.0 mb)
Winds: variable direction winds at 2 MPH (2 knots; 1.0 m/s)
Visibility: 6 or more miles (10+ km)
Ceiling: 15000 feet AGL
Clouds: scattered clouds at 1400 feet AGL
broken clouds at 15000 feet AGL
Weather: no significant weather observed at this time

METAR text: WBGS 150500Z VRB03KT 9999 FEW008 SCT016 BKN150 26/25 Q1013
Conditions at: WBGS (SIBU , MY) observed 0500 UTC 15 February 2019
Temperature: 26.0°C (79°F)
Dewpoint: 25.0°C (77°F) [RH = 94%]
Pressure (altimeter): 29.91 inches Hg (1013.0 mb)
Winds: variable direction winds at 3 MPH (3 knots; 1.5 m/s)
Visibility: 6 or more miles (10+ km)
Ceiling: 15000 feet AGL
Clouds: few clouds at 800 feet AGL
scattered clouds at 1600 feet AGL
broken clouds at 15000 feet AGL
Weather: no significant weather observed at this time

METAR text: WBGS 150400Z VRB02KT 9999 FEW008 SCT016 BKN150 26/24 Q1013 RERA
Conditions at: WBGS (SIBU , MY) observed 0400 UTC 15 February 2019
Temperature: 26.0°C (79°F)
Dewpoint: 24.0°C (75°F) [RH = 89%]
Pressure (altimeter): 29.91 inches Hg (1013.0 mb)
Winds: variable direction winds at 2 MPH (2 knots; 1.0 m/s)
Visibility: 6 or more miles (10+ km)
Ceiling: 15000 feet AGL
Clouds: few clouds at 800 feet AGL
scattered clouds at 1600 feet AGL
broken clouds at 15000 feet AGL
Weather: no significant weather observed at this time

METAR text: WBGS 150300Z VRB03KT 9999 -RA FEW006 SCT016 BKN150 26/24 Q1014
Conditions at: WBGS (SIBU , MY) observed 0300 UTC 15 February 2019
Temperature: 26.0°C (79°F)
Dewpoint: 24.0°C (75°F) [RH = 89%]
Pressure (altimeter): 29.94 inches Hg (1014.0 mb)
Winds: variable direction winds at 3 MPH (3 knots; 1.5 m/s)
Visibility: 6 or more miles (10+ km)
Ceiling: 15000 feet AGL
Clouds: few clouds at 600 feet AGL
scattered clouds at 1600 feet AGL
broken clouds at 15000 feet AGL
Weather: -RA  (light rain)

METAR text: WBGS 150200Z VRB03KT 9999 -RA FEW006 SCT016 BKN150 26/24 Q1015
Conditions at: WBGS (SIBU , MY) observed 0200 UTC 15 February 2019
Temperature: 26.0°C (79°F)
Dewpoint: 24.0°C (75°F) [RH = 89%]
Pressure (altimeter): 29.97 inches Hg (1015.0 mb)
Winds: variable direction winds at 3 MPH (3 knots; 1.5 m/s)
Visibility: 6 or more miles (10+ km)
Ceiling: 15000 feet AGL
Clouds: few clouds at 600 feet AGL
scattered clouds at 1600 feet AGL
broken clouds at 15000 feet AGL
Weather: -RA  (light rain)

METAR text: WBGS 150100Z 05003KT 360V080 9999 FEW006 SCT016 BKN150 25/24 Q1014 RERA
Conditions at: WBGS (SIBU , MY) observed 0100 UTC 15 February 2019
Temperature: 25.0°C (77°F)
Dewpoint: 24.0°C (75°F) [RH = 94%]
Pressure (altimeter): 29.94 inches Hg (1014.0 mb)
Winds: from the NE (50 degrees) at 3 MPH (3 knots; 1.5 m/s)
Visibility: 6 or more miles (10+ km)
Ceiling: 15000 feet AGL
Clouds: few clouds at 600 feet AGL
scattered clouds at 1600 feet AGL
broken clouds at 15000 feet AGL
Weather: no significant weather observed at this time

METAR text: WBGS 150000Z 10004KT 060V120 9999 -RA FEW006 SCT016 BKN150 25/25 Q1013
Conditions at: WBGS (SIBU , MY) observed 0000 UTC 15 February 2019
Temperature: 25.0°C (77°F)
Dewpoint: 25.0°C (77°F) [RH = 100%]
Pressure (altimeter): 29.91 inches Hg (1013.0 mb)
Winds: from the E (100 degrees) at 5 MPH (4 knots; 2.1 m/s)
Visibility: 6 or more miles (10+ km)
Ceiling: 15000 feet AGL
Clouds: few clouds at 600 feet AGL
scattered clouds at 1600 feet AGL
broken clouds at 15000 feet AGL
Weather: -RA  (light rain)

METAR text: WBGS 142300Z VRB02KT 1800 +RA FEW005 SCT016 BKN150 25/25 Q1012
Conditions at: WBGS (SIBU , MY) observed 2300 UTC 14 February 2019
Temperature: 25.0°C (77°F)
Dewpoint: 25.0°C (77°F) [RH = 100%]
Pressure (altimeter): 29.88 inches Hg (1012.0 mb)
Winds: variable direction winds at 2 MPH (2 knots; 1.0 m/s)
Visibility: 1.12 miles (1.80 km)
Ceiling: 15000 feet AGL
Clouds: few clouds at 500 feet AGL
scattered clouds at 1600 feet AGL
broken clouds at 15000 feet AGL
Weather: +RA  (heavy rain)

METAR text: WBGS 142200Z 00000KT 9999 -RA FEW006 SCT016 BKN150 25/25 Q1012
Conditions at: WBGS (SIBU , MY) observed 2200 UTC 14 February 2019
Temperature: 25.0°C (77°F)
Dewpoint: 25.0°C (77°F) [RH = 100%]
Pressure (altimeter): 29.88 inches Hg (1012.0 mb)
Winds: calm
Visibility: 6 or more miles (10+ km)
Ceiling: 15000 feet AGL
Clouds: few clouds at 600 feet AGL
scattered clouds at 1600 feet AGL
broken clouds at 15000 feet AGL
Weather: -RA  (light rain)

METAR text: WBGS 142100Z 00000KT 9999 FEW008 SCT018 BKN150 25/24 Q1011
Conditions at: WBGS (SIBU , MY) observed 2100 UTC 14 February 2019
Temperature: 25.0°C (77°F)
Dewpoint: 24.0°C (75°F) [RH = 94%]
Pressure (altimeter): 29.85 inches Hg (1011.0 mb)
Winds: calm
Visibility: 6 or more miles (10+ km)
Ceiling: 15000 feet AGL
Clouds: few clouds at 800 feet AGL
scattered clouds at 1800 feet AGL
broken clouds at 15000 feet AGL
Weather: no significant weather observed at this time

METAR text: WBGS 142000Z VRB02KT 9999 FEW008 SCT018 BKN150 25/24 Q1010
Conditions at: WBGS (SIBU , MY) observed 2000 UTC 14 February 2019
Temperature: 25.0°C (77°F)
Dewpoint: 24.0°C (75°F) [RH = 94%]
Pressure (altimeter): 29.82 inches Hg (1010.0 mb)
Winds: variable direction winds at 2 MPH (2 knots; 1.0 m/s)
Visibility: 6 or more miles (10+ km)
Ceiling: 15000 feet AGL
Clouds: few clouds at 800 feet AGL
scattered clouds at 1800 feet AGL
broken clouds at 15000 feet AGL
Weather: no significant weather observed at this time

METAR text: WBGS 141900Z VRB02KT 9999 FEW008 SCT018 BKN150 25/24 Q1011
Conditions at: WBGS (SIBU , MY) observed 1900 UTC 14 February 2019
Temperature: 25.0°C (77°F)
Dewpoint: 24.0°C (75°F) [RH = 94%]
Pressure (altimeter): 29.85 inches Hg (1011.0 mb)
Winds: variable direction winds at 2 MPH (2 knots; 1.0 m/s)
Visibility: 6 or more miles (10+ km)
Ceiling: 15000 feet AGL
Clouds: few clouds at 800 feet AGL
scattered clouds at 1800 feet AGL
broken clouds at 15000 feet AGL
Weather: no significant weather observed at this time

METAR text: WBGS 141800Z VRB01KT 9999 SCT018 BKN150 25/24 Q1012
Conditions at: WBGS (SIBU , MY) observed 1800 UTC 14 February 2019
Temperature: 25.0°C (77°F)
Dewpoint: 24.0°C (75°F) [RH = 94%]
Pressure (altimeter): 29.88 inches Hg (1012.0 mb)
Winds: variable direction winds at 1 MPH (1 knots; 0.5 m/s)
Visibility: 6 or more miles (10+ km)
Ceiling: 15000 feet AGL
Clouds: scattered clouds at 1800 feet AGL
broken clouds at 15000 feet AGL
Weather: no significant weather observed at this time

Forecast for: WBGS (SIBU , MY)
Text: TAF WBGS 160500Z 1606/1706 VRB03KT 9999 SCT018
Forecast period: 0600 UTC 16 February 2019 to 0600 UTC 17 February 2019
Forecast type: FROM: standard forecast or significant change
Winds: variable direction winds at 3 MPH (3 knots; 1.5 m/s)
Visibility: 6 or more miles 10+ km)
Ceiling: at least 12,000 feet AGL
Clouds: scattered clouds at 1800 feet AGL
Weather: no significant weather forecast for this period
Text: TEMPO 1607/1610 4000 SHRA FEW015CB
Forecast period: 0700 to 1000 UTC 16 February 2019
Forecast type: TEMPORARY: The following changes expected for less than half the time period
Visibility: 2.49 miles (4.01 km)
Ceiling: at least 12,000 feet AGL
Clouds: few clouds at 1500 feet AGL
Weather: SHRA  (rain showers)